createdAt,value
2023-03-22T00:02:02.298Z,100524.63
2023-03-22T00:04:28.631Z,100515.84
2023-03-22T00:06:54.927Z,100520.41
2023-03-22T00:09:21.309Z,100510.72
2023-03-22T00:11:47.735Z,100510.84
2023-03-22T00:14:14.029Z,100511.75
2023-03-22T00:16:40.347Z,100503.28
2023-03-22T00:19:07.036Z,100503.09
2023-03-22T00:21:33.426Z,100498.25
2023-03-22T00:23:59.807Z,100495.53
2023-03-22T00:26:26.140Z,100494.78
2023-03-22T00:28:52.469Z,100496.44
2023-03-22T00:31:18.837Z,100492.31
2023-03-22T00:33:45.174Z,100489.59
2023-03-22T00:36:11.485Z,100474.00
2023-03-22T00:38:45.314Z,100468.88
2023-03-22T00:41:11.695Z,100462.81
2023-03-22T00:43:38.018Z,100456.88
2023-03-22T00:46:04.361Z,100469.31
2023-03-22T00:48:30.691Z,100462.81
2023-03-22T00:50:57.026Z,100458.13
2023-03-22T00:53:23.318Z,100460.72
2023-03-22T00:55:49.639Z,100450.25
2023-03-22T00:58:16.007Z,100454.16
2023-03-22T01:00:42.610Z,100446.44
2023-03-22T01:03:09.059Z,100442.81
2023-03-22T01:05:35.386Z,100445.13
2023-03-22T01:08:01.752Z,100448.56
2023-03-22T01:10:28.093Z,100448.44
2023-03-22T01:12:54.456Z,100443.31
2023-03-22T01:15:20.813Z,100443.25
2023-03-22T01:17:47.144Z,100438.00
2023-03-22T01:20:13.487Z,100426.75
2023-03-22T01:22:40.078Z,100417.22
2023-03-22T01:25:06.464Z,100418.44
2023-03-22T01:27:32.770Z,100410.41
2023-03-22T01:29:59.097Z,100407.69
2023-03-22T01:32:25.448Z,100402.22
2023-03-22T01:34:51.756Z,100404.22
2023-03-22T01:37:18.081Z,100399.22
2023-03-22T01:39:44.512Z,100400.88
2023-03-22T01:42:10.850Z,100400.28
2023-03-22T01:44:37.164Z,100394.53
2023-03-22T01:47:03.532Z,100390.13
2023-03-22T01:49:30.081Z,100371.34
2023-03-22T01:51:56.444Z,100380.44
2023-03-22T01:54:22.793Z,100385.28
2023-03-22T01:56:49.147Z,100369.81
2023-03-22T01:59:15.462Z,100369.81
2023-03-22T02:01:41.851Z,100366.34
2023-03-22T02:04:08.208Z,100356.38
2023-03-22T02:06:34.503Z,100356.66
2023-03-22T02:09:00.988Z,100352.59
2023-03-22T02:11:27.316Z,100340.78
2023-03-22T02:13:53.616Z,100343.63
2023-03-22T02:16:20.026Z,100329.69
2023-03-22T02:18:46.452Z,100330.75
2023-03-22T02:21:12.766Z,100329.41
2023-03-22T02:23:39.122Z,100323.81
2023-03-22T02:26:05.430Z,100330.75
2023-03-22T02:28:31.795Z,100324.09
2023-03-22T02:30:58.180Z,100321.66
2023-03-22T02:33:24.547Z,100315.50
2023-03-22T02:35:50.891Z,100316.84
2023-03-22T02:38:17.242Z,100327.25
2023-03-22T02:40:43.709Z,100321.53
2023-03-22T02:43:10.076Z,100321.09
2023-03-22T02:45:36.433Z,100326.06
2023-03-22T02:48:02.906Z,100330.47
2023-03-22T02:50:29.308Z,100332.84
2023-03-22T02:52:55.648Z,100332.13
2023-03-22T02:55:22.126Z,100337.28
2023-03-22T02:57:48.464Z,100341.66
2023-03-22T03:00:14.782Z,100341.06
2023-03-22T03:02:41.128Z,100332.72
2023-03-22T03:05:07.426Z,100338.03
2023-03-22T03:07:33.719Z,100333.47
2023-03-22T03:10:00.170Z,100345.13
2023-03-22T03:12:26.493Z,100338.31
2023-03-22T03:14:52.834Z,100337.22
2023-03-22T03:17:19.181Z,100342.88
2023-03-22T03:19:45.547Z,100333.47
2023-03-22T03:22:11.905Z,100330.13
2023-03-22T03:24:38.257Z,100322.84
2023-03-22T03:27:04.616Z,100327.59
2023-03-22T03:29:30.966Z,100333.94
2023-03-22T03:31:57.339Z,100332.88
2023-03-22T03:34:23.696Z,100335.59
2023-03-22T03:36:50.030Z,100328.16
2023-03-22T03:39:16.424Z,100317.31
2023-03-22T03:41:42.768Z,100334.38
2023-03-22T03:44:09.136Z,100327.41
2023-03-22T03:46:35.514Z,100318.91
2023-03-22T03:49:01.872Z,100322.72
2023-03-22T03:51:28.327Z,100322.44
2023-03-22T03:53:54.704Z,100320.75
2023-03-22T03:56:21.004Z,100319.34
2023-03-22T03:58:47.324Z,100322.97
2023-03-22T04:01:13.653Z,100322.72
2023-03-22T04:03:40.140Z,100329.84
2023-03-22T04:06:06.521Z,100323.81
2023-03-22T04:08:32.888Z,100343.03
2023-03-22T04:10:59.253Z,100327.59
2023-03-22T04:13:25.621Z,100332.13
2023-03-22T04:15:51.939Z,100325.63
2023-03-22T04:18:18.273Z,100329.41
2023-03-22T04:20:44.562Z,100321.91
2023-03-22T04:23:10.889Z,100323.31
2023-03-22T04:25:37.313Z,100311.19
2023-03-22T04:28:03.620Z,100321.50
2023-03-22T04:30:29.994Z,100312.41
2023-03-22T04:32:56.325Z,100305.59
2023-03-22T04:35:22.665Z,100297.91
2023-03-22T04:37:48.988Z,100301.94
2023-03-22T04:40:15.284Z,100303.75
2023-03-22T04:42:41.643Z,100301.66
2023-03-22T04:45:08.044Z,100308.16
2023-03-22T04:47:34.411Z,100300.88
2023-03-22T04:50:00.852Z,100295.72
2023-03-22T04:52:27.163Z,100297.69
2023-03-22T04:54:53.519Z,100301.78
2023-03-22T04:57:19.990Z,100297.41
2023-03-22T04:59:46.348Z,100300.13
2023-03-22T05:02:12.703Z,100301.31
2023-03-22T05:04:39.081Z,100290.59
2023-03-22T05:07:05.393Z,100287.25
2023-03-22T05:09:31.721Z,100280.00
2023-03-22T05:11:58.026Z,100274.84
2023-03-22T05:14:24.392Z,100293.34
2023-03-22T05:16:50.715Z,100294.97
2023-03-22T05:19:17.098Z,100291.81
2023-03-22T05:21:43.466Z,100296.63
2023-03-22T05:24:09.816Z,100302.69
2023-03-22T05:26:36.166Z,100288.63
2023-03-22T05:29:02.481Z,100286.50
2023-03-22T05:31:28.844Z,100280.91
2023-03-22T05:33:55.204Z,100279.97
2023-03-22T05:36:21.557Z,100284.22
2023-03-22T05:38:47.901Z,100297.22
2023-03-22T05:41:14.224Z,100290.09
2023-03-22T05:43:40.586Z,100283.50
2023-03-22T05:46:06.920Z,100304.06
2023-03-22T05:48:33.289Z,100297.84
2023-03-22T05:50:59.665Z,100303.00
2023-03-22T05:53:26.050Z,100298.94
2023-03-22T05:55:52.414Z,100290.28
2023-03-22T05:58:18.783Z,100281.81
2023-03-22T06:00:45.148Z,100283.63
2023-03-22T06:03:11.534Z,100282.72
2023-03-22T06:05:37.874Z,100280.47
2023-03-22T06:08:04.237Z,100275.47
2023-03-22T06:10:30.638Z,100272.13
2023-03-22T06:12:56.991Z,100274.69
2023-03-22T06:15:23.369Z,100275.75
2023-03-22T06:17:49.733Z,100272.28
2023-03-22T06:20:16.024Z,100269.41
2023-03-22T06:22:42.354Z,100274.84
2023-03-22T06:25:08.720Z,100283.31
2023-03-22T06:27:35.065Z,100281.50
2023-03-22T06:30:01.354Z,100292.09
2023-03-22T06:32:27.730Z,100294.53
2023-03-22T06:34:54.180Z,100308.28
2023-03-22T06:37:20.542Z,100300.84
2023-03-22T06:39:46.848Z,100305.09
2023-03-22T06:42:13.196Z,100316.47
2023-03-22T06:44:39.627Z,100316.91
2023-03-22T06:47:06.014Z,100316.63
2023-03-22T06:49:32.388Z,100318.72
2023-03-22T06:51:58.753Z,100321.91
2023-03-22T06:54:25.126Z,100326.59
2023-03-22T06:56:51.475Z,100334.50
2023-03-22T06:59:17.836Z,100337.34
2023-03-22T07:01:44.188Z,100341.91
2023-03-22T07:04:10.646Z,100338.41
2023-03-22T07:06:37.036Z,100333.41
2023-03-22T07:09:03.380Z,100335.09
2023-03-22T07:11:29.805Z,100332.38
2023-03-22T07:13:56.145Z,100339.63
2023-03-22T07:16:22.593Z,100335.97
2023-03-22T07:18:48.964Z,100330.84
2023-03-22T07:21:15.275Z,100332.81
2023-03-22T07:23:41.599Z,100327.06
2023-03-22T07:26:07.899Z,100324.94
2023-03-22T07:28:34.215Z,100334.63
2023-03-22T07:31:00.587Z,100332.81
2023-03-22T07:33:26.948Z,100324.44
2023-03-22T07:35:53.357Z,100327.81
2023-03-22T07:38:19.758Z,100339.00
2023-03-22T07:40:46.073Z,100335.25
2023-03-22T07:43:12.377Z,100331.16
2023-03-22T07:45:38.794Z,100337.78
2023-03-22T07:48:05.217Z,100346.16
2023-03-22T07:50:31.569Z,100344.16
2023-03-22T07:52:57.934Z,100359.28
2023-03-22T07:55:24.285Z,100353.84
2023-03-22T07:57:50.673Z,100349.75
2023-03-22T08:00:16.979Z,100351.41
2023-03-22T08:02:43.357Z,100344.44
2023-03-22T08:05:09.781Z,100343.25
2023-03-22T08:07:36.076Z,100346.59
2023-03-22T08:10:02.443Z,100348.25
2023-03-22T08:12:28.911Z,100353.56
2023-03-22T08:14:55.320Z,100355.34
2023-03-22T08:17:21.628Z,100350.66
2023-03-22T08:19:47.968Z,100349.59
2023-03-22T08:22:14.294Z,100354.31
2023-03-22T08:24:40.654Z,100350.38
2023-03-22T08:27:07.040Z,100366.56
2023-03-22T08:29:33.339Z,100350.50
2023-03-22T08:31:59.753Z,100344.28
2023-03-22T08:34:26.100Z,100347.16
2023-03-22T08:36:52.399Z,100357.47
2023-03-22T08:39:18.784Z,100337.78
2023-03-22T08:41:45.157Z,100350.84
2023-03-22T08:44:11.544Z,100359.78
2023-03-22T08:46:37.938Z,100352.03
2023-03-22T08:49:04.307Z,100353.06
2023-03-22T08:51:30.625Z,100353.97
2023-03-22T08:53:57.002Z,100339.31
2023-03-22T08:56:23.344Z,100340.22
2023-03-22T08:58:49.720Z,100341.13
2023-03-22T09:01:16.253Z,100335.97
2023-03-22T09:03:42.608Z,100321.78
2023-03-22T09:06:09.081Z,100334.94
2023-03-22T09:08:35.425Z,100324.03
2023-03-22T09:11:01.768Z,100339.31
2023-03-22T09:13:28.132Z,100330.81
2023-03-22T09:15:54.516Z,100322.50
2023-03-22T09:18:20.920Z,100326.56
2023-03-22T09:20:47.238Z,100329.75
2023-03-22T09:23:13.563Z,100329.75
2023-03-22T09:25:40.120Z,100338.25
2023-03-22T09:28:06.690Z,100323.72
2023-03-22T09:30:33.026Z,100327.66
2023-03-22T09:32:59.417Z,100325.69
2023-03-22T09:35:25.822Z,100324.50
2023-03-22T09:37:52.216Z,100318.44
2023-03-22T09:40:18.599Z,100310.25
2023-03-22T09:42:44.911Z,100310.69
2023-03-22T09:45:11.295Z,100311.75
2023-03-22T09:47:44.852Z,100306.88
2023-03-22T09:50:11.807Z,100310.97
2023-03-22T09:52:38.149Z,100305.53
2023-03-22T09:55:04.503Z,100301.47
2023-03-22T09:57:30.827Z,100294.97
2023-03-22T09:59:57.208Z,100291.75
2023-03-22T10:02:23.647Z,100289.78
2023-03-22T10:04:50.022Z,100281.16
2023-03-22T10:07:16.391Z,100281.34
2023-03-22T10:09:42.736Z,100264.72
2023-03-22T10:12:09.078Z,100279.06
2023-03-22T10:14:35.425Z,100281.78
2023-03-22T10:17:01.781Z,100292.81
2023-03-22T10:19:28.105Z,100291.47
2023-03-22T10:21:54.415Z,100289.97
2023-03-22T10:24:20.722Z,100284.06
2023-03-22T10:26:47.170Z,100284.66
2023-03-22T10:29:13.542Z,100275.91
2023-03-22T10:31:39.909Z,100266.53
2023-03-22T10:34:06.255Z,100261.06
2023-03-22T10:36:32.719Z,100253.81
2023-03-22T10:38:59.032Z,100251.22
2023-03-22T10:41:25.368Z,100261.22
2023-03-22T10:43:51.697Z,100263.19
2023-03-22T10:46:18.031Z,100259.84
2023-03-22T10:48:44.468Z,100260.91
2023-03-22T10:51:10.781Z,100259.13
2023-03-22T10:53:37.136Z,100251.19
2023-03-22T10:56:03.889Z,100257.28
2023-03-22T10:58:30.267Z,100257.13
2023-03-22T11:00:56.873Z,100244.25
2023-03-22T11:03:23.261Z,100242.44
2023-03-22T11:05:49.726Z,100248.81
2023-03-22T11:08:16.074Z,100246.56
2023-03-22T11:10:42.410Z,100255.19
2023-03-22T11:13:08.791Z,100246.91
2023-03-22T11:15:35.129Z,100241.56
2023-03-22T11:18:01.547Z,100246.41
2023-03-22T11:20:29.968Z,100260.31
2023-03-22T11:22:57.520Z,100250.19
2023-03-22T11:25:23.830Z,100239.13
2023-03-22T11:27:50.297Z,100243.97
2023-03-22T11:30:16.735Z,100245.50
2023-03-22T11:32:43.262Z,100238.22
2023-03-22T11:35:09.717Z,100239.44
2023-03-22T11:37:36.096Z,100239.44
2023-03-22T11:40:02.475Z,100243.06
2023-03-22T11:42:28.821Z,100239.56
2023-03-22T11:44:55.198Z,100235.66
2023-03-22T11:47:21.512Z,100236.56
2023-03-22T11:49:47.902Z,100231.56
2023-03-22T11:52:14.234Z,100242.47
2023-03-22T11:54:40.547Z,100234.59
2023-03-22T11:57:06.854Z,100227.47
2023-03-22T11:59:33.232Z,100233.38
2023-03-22T12:01:59.614Z,100235.78
2023-03-22T12:04:26.076Z,100228.53
2023-03-22T12:06:52.438Z,100233.38
2023-03-22T12:09:18.791Z,100233.97
2023-03-22T12:11:45.204Z,100229.72
2023-03-22T12:14:11.576Z,100238.22
2023-03-22T12:16:38.078Z,100234.75
2023-03-22T12:19:04.426Z,100224.00
2023-03-22T12:21:30.734Z,100232.78
2023-03-22T12:23:57.144Z,100216.44
2023-03-22T12:26:23.558Z,100219.16
2023-03-22T12:28:49.878Z,100206.31
2023-03-22T12:31:16.239Z,100204.47
2023-03-22T12:33:42.624Z,100192.53
2023-03-22T12:36:08.990Z,100191.28
2023-03-22T12:38:35.351Z,100188.44
2023-03-22T12:41:01.725Z,100190.13
2023-03-22T12:43:28.086Z,100184.22
2023-03-22T12:45:54.418Z,100178.44
2023-03-22T12:48:20.918Z,100185.72
2023-03-22T12:50:47.284Z,100184.34
2023-03-22T12:53:13.676Z,100182.41
2023-03-22T12:55:40.353Z,100188.13
2023-03-22T12:58:06.805Z,100185.72
2023-03-22T13:00:33.220Z,100176.66
2023-03-22T13:02:59.737Z,100182.56
2023-03-22T13:05:26.193Z,100180.56
2023-03-22T13:07:52.520Z,100181.91
2023-03-22T13:10:18.875Z,100191.28
2023-03-22T13:12:45.246Z,100165.88
2023-03-22T13:15:11.539Z,100188.72
2023-03-22T13:17:38.015Z,100178.72
2023-03-22T13:20:04.480Z,100170.72
2023-03-22T13:22:30.836Z,100172.69
2023-03-22T13:24:57.162Z,100163.91
2023-03-22T13:27:23.620Z,100155.28
2023-03-22T13:29:49.978Z,100156.66
2023-03-22T13:32:16.376Z,100152.56
2023-03-22T13:34:42.718Z,100152.56
2023-03-22T13:37:09.079Z,100151.03
2023-03-22T13:39:35.434Z,100155.59
2023-03-22T13:42:01.780Z,100152.88
2023-03-22T13:44:28.085Z,100146.84
2023-03-22T13:46:54.406Z,100141.53
2023-03-22T13:49:20.805Z,100143.78
2023-03-22T13:51:47.172Z,100132.75
2023-03-22T13:54:13.516Z,100142.25
2023-03-22T13:56:39.857Z,100129.38
2023-03-22T13:59:06.150Z,100125.31
2023-03-22T14:01:32.535Z,100127.59
2023-03-22T14:03:58.986Z,100133.19
2023-03-22T14:06:25.388Z,100123.47
2023-03-22T14:08:51.704Z,100115.91
2023-03-22T14:11:18.088Z,100104.72
2023-03-22T14:13:44.454Z,100112.00
2023-03-22T14:16:10.846Z,100117.28
2023-03-22T14:18:37.216Z,100105.03
2023-03-22T14:21:03.547Z,100102.91
